This is the latest recevied weather packets stored in our database for station/object MM9SQL. If no packets are shown the sender has not sent any weather packets the latest 10 day(s).
| Time | Temp. | Humidity | Pressure | Rain* | Wind** | Luminosity | Snow |
|---|---|---|---|---|---|---|---|
| 1777963206 | 5° C | 87% | 1016 hPa | 0 mm | - | - | - |
| 1777961705 | 5.56° C | 89% | 1015.6 hPa | 0 mm | - | - | - |
| 1777961103 | 5.56° C | 89% | 1015.4 hPa | 0 mm | - | - | - |
| 1777960812 | 5.56° C | 89% | 1015.3 hPa | 0 mm | - | - | - |
| 1777960207 | 5° C | 89% | 1015.1 hPa | 0 mm | - | - | - |
| 1777959306 | 5.56° C | 89% | 1015.1 hPa | 0.25 mm | - | - | - |
| 1777948503 | 6.67° C | 93% | 1013.7 hPa | 0 mm | - | - | - |
| 1777943711 | 7.22° C | 93% | 1013.6 hPa | 0 mm | - | - | - |
| 1777940104 | 7.78° C | 93% | 1013.8 hPa | 0 mm | - | - | - |
| 1777931702 | 8.33° C | 92% | 1013.8 hPa | 0 mm | - | - | - |
| 1777931402 | 8.33° C | 91% | 1013.8 hPa | 0 mm | - | - | - |
| 1777930514 | 8.33° C | 91% | 1013.9 hPa | 0 mm | - | - | - |
| 1777929008 | 8.33° C | 90% | 1013.9 hPa | 0.25 mm | - | - | - |
| 1777928702 | 8.33° C | 90% | 1013.9 hPa | 0.25 mm | - | - | - |
| 1777928403 | 8.33° C | 90% | 1014 hPa | 0.25 mm | - | - | - |
| 1777927803 | 8.33° C | 90% | 1013.8 hPa | 0.51 mm | - | - | - |
| 1777926610 | 8.33° C | 89% | 1013.9 hPa | 0.76 mm | - | - | - |
| 1777926306 | 8.33° C | 89% | 1013.8 hPa | 0.76 mm | - | - | - |
| 1777924818 | 8.89° C | 88% | 1013.6 hPa | 0.51 mm | - | - | - |
| 1777924506 | 8.89° C | 88% | 1013.6 hPa | 0.51 mm | - | - | - |
| 1777924203 | 8.89° C | 87% | 1013.6 hPa | 0.25 mm | - | - | - |
| 1777921506 | 9.44° C | 85% | 1013.4 hPa | 0.76 mm | - | - | - |
| 1777921214 | 9.44° C | 84% | 1013.4 hPa | 0.76 mm | - | - | - |
| 1777916406 | 11.67° C | 73% | 1013 hPa | 0 mm | - | - | - |
| 1777916107 | 12.22° C | 73% | 1013 hPa | 0 mm | - | - | - |
* Rain latest hour (hover to see other rain measurements)
** Current wind speed in m/s (hover to see current wind gust speed)